TNCM/SXM METAR and TAF weather

Enter ICAO airport designator
Station Type Date Time Source
TNCM METAR 2021/05/13 06:00 UTC NOAA

TNCM 130600Z 07012KT 9999 FEW018 26/21 Q1018


Station Type Date Time Source
TNCM Decoded METAR 2021/05/13 06:00 UTC NOAA

Juliana Airport, Saint Maarten, Netherlands Antilles (TNCM) 18-03N 063-07W 9M
May 13, 2021 - 02:00 AM EDT / 2021.05.13 0600 UTC
Wind: from the ENE (070 degrees) at 14 MPH (12 KT):0
Visibility: greater than 7 mile(s):0
Sky conditions: mostly clear
Temperature: 78 F (26 C)
Dew Point: 69 F (21 C)
Relative Humidity: 73%
Pressure (altimeter): 30.06 in. Hg (1018 hPa)
ob: TNCM 130600Z 07012KT 9999 FEW018 26/21 Q1018
cycle: 6

Station Type Date Time Source
TNCM TAF 2021/05/13 06:58 UTC NOAA

TAF TNCM 130539Z 1306/1406 07010KT P6SM VCSH SCT018 SCT035
FM131400 10012KT P6SM SCT024

Example: see airport list